(°C)
(°C)
SV
SV
SV
VSV
VSV
VSV
SV
(km/h)
18-26
18-24
18-24
19-27
20-30
20-33
21-34
(mm)
1
1
0
0
0
0
0
(%)
49
39
25
17
17
16
1

Výška Slnka nad obzorom

/ -7°
sun-icon
UV 1
07:08
19:06
Zmenšujúci sa polmesiac (253°)
21:24
14:23

Správy METAR pre lokalitu Ufa International Airport (UWUU)

Čas Podmienky Teplota/
Rosný bod
Vietor Viditeľnosť Počasie Oblaky Tlak Zmeniť Nespracované
MVFR 7°C / 5°C 50º 12kt >10km Light Rain 1.00mm precipitation Vertical Visibility of 0ft. 1009 No Significant change. Runway 14R: Wet or puddles, 51-100% contamination with 2mm, friction coefficient 0.40. UWUU 270100Z 05006MPS 9999 -RA OVC030 07/05 Q1009 R14R/290240 NOSIG
MVFR 7°C / 5°C 50º 10kt >10km Light Rain 1.00mm precipitation Vertical Visibility of 0ft. 1008 No Significant change. Runway 14R: Wet or puddles, 51-100% contamination with 2mm, friction coefficient 0.40. UWUU 270030Z 05005MPS 9999 -RA OVC030 07/05 Q1008 R14R/290240 NOSIG
MVFR 7°C / 6°C 50º 12kt >10km Light Rain 1.00mm precipitation Vertical Visibility of 0ft. 1009 No Significant change. Runway 14R: Wet or puddles, 51-100% contamination with 2mm, friction coefficient 0.40. UWUU 270000Z 05006MPS 9999 -RA OVC030 07/06 Q1009 R14R/290240 NOSIG
MVFR 7°C / 6°C 60º 10kt >10km Light Rain 1.00mm precipitation Vertical Visibility of 0ft. 1009 No Significant change. Runway 14R: Wet or puddles, 51-100% contamination with 2mm, friction coefficient 0.40. UWUU 262330Z 06005MPS 9999 -RA OVC030 07/06 Q1009 R14R/290240 NOSIG
MVFR 8°C / 7°C 50º 10kt >10km Light Rain 1.00mm precipitation Vertical Visibility of 0ft. 1008 No Significant change. Runway 14R: Wet or puddles, 51-100% contamination with 2mm, friction coefficient 0.40. UWUU 262300Z 05005MPS 9999 -RA OVC030 08/07 Q1008 R14R/290240 NOSIG
MVFR 8°C / 6°C 60º 6kt >10km Light Rain 1.00mm precipitation Vertical Visibility of 0ft. 1009 No Significant change. Runway 14R: Wet or puddles, 51-100% contamination with 2mm, friction coefficient 0.40. UWUU 262230Z 06003MPS 9999 -RA OVC030 08/06 Q1009 R14R/290240 NOSIG
MVFR 8°C / 6°C 70º variable 050º to 130º 10kt >10km Light Rain 1.00mm precipitation Vertical Visibility of 0ft. 1009 No Significant change. Runway 14R: Wet or puddles, 51-100% contamination with 2mm, friction coefficient 0.40. UWUU 262200Z 07005MPS 050V130 9999 -RA OVC030 08/06 Q1009 R14R/290240 NOSIG
IFR 8°C / 7°C 80º variable 050º to 130º 10kt 4500m Light Rain 1.00mm precipitation Vertical Visibility of 0ft. 1009 No Significant change. Runway 14R: Wet or puddles, 51-100% contamination with 2mm, friction coefficient 0.40. UWUU 262130Z 08005MPS 050V130 4500 -RA OVC030 08/07 Q1009 R14R/290240 NOSIG
IFR 8°C / 7°C 70º 8kt 4500m Light Rain 1.00mm precipitation Vertical Visibility of 0ft. 1009 No Significant change. Runway 14R: Wet or puddles, 51-100% contamination with 2mm, friction coefficient 0.40. UWUU 262100Z 07004MPS 4500 -RA OVC030 08/07 Q1009 R14R/290240 NOSIG
IFR 8°C / 7°C 80º variable 050º to 120º 10kt 4500m Light Rain 1.00mm precipitation Vertical Visibility of 0ft. 1009 No Significant change. Runway 14R: Wet or puddles, 51-100% contamination with 2mm, friction coefficient 0.40. UWUU 262030Z 08005MPS 050V120 4500 -RA OVC030 08/07 Q1009 R14R/290240 NOSIG
IFR 9°C / 7°C 80º variable 050º to 130º 8kt 4500m Light Rain 1.00mm precipitation Vertical Visibility of 0ft. 1009 No Significant change. Runway 14R: Wet or puddles, 51-100% contamination with 2mm, friction coefficient 0.44. UWUU 262000Z 08004MPS 050V130 4500 -RA OVC030 09/07 Q1009 R14R/290244 NOSIG
MVFR 9°C / 7°C 100º variable 060º to 150º 8kt >10km Light Rain 1.00mm precipitation Vertical Visibility of 0ft. 1009 No Significant change. Runway 14R: Damp, , friction coefficient 0.52. UWUU 261930Z 10004MPS 060V150 9999 -RA OVC030 09/07 Q1009 R14R/1///52 NOSIG
MVFR 9°C / 7°C 90º variable 050º to 140º 8kt >10km Light Rain 1.00mm precipitation Vertical Visibility of 0ft. 1009 No Significant change. Runway 14R: Damp, , friction coefficient 0.52. UWUU 261900Z 09004MPS 050V140 9999 -RA OVC030 09/07 Q1009 R14R/1///52 NOSIG
MVFR 9°C / 7°C 100º variable 070º to 130º 12kt >10km Light Rain 1.00mm precipitation Vertical Visibility of 0ft. 1009 No Significant change. Runway 14R: Damp, , friction coefficient 0.52. UWUU 261830Z 10006MPS 070V130 9999 -RA OVC030 09/07 Q1009 R14R/1///52 NOSIG
MVFR 9°C / 7°C 100º 12kt >10km Light Rain 1.00mm precipitation Vertical Visibility of 0ft. 1009 No Significant change. Runway 14R: Damp, , friction coefficient 0.52. UWUU 261800Z 10006MPS 9999 -RA OVC030 09/07 Q1009 R14R/1///52 NOSIG
MVFR 10°C / 6°C 100º variable 060º to 120º 12kt >10km Light Rain 1.00mm precipitation Vertical Visibility of 0ft. 1009 No Significant change. Runway 14R: Damp, , friction coefficient 0.52. UWUU 261730Z 10006MPS 060V120 9999 -RA OVC030 10/06 Q1009 R14R/1///52 NOSIG
VFR 11°C / 6°C 100º variable 060º to 130º 16kt >10km Light Rain 1.00mm precipitation Vertical Visibility of 0ft. 1009 No Significant change. Runway 14R: Damp, , friction coefficient 0.52. UWUU 261700Z 10008MPS 060V130 9999 -RA OVC040 11/06 Q1009 R14R/1///52 NOSIG
VFR 11°C / 6°C 100º variable 070º to 130º 12kt >10km - Overcast 4000ft 1008 No Significant change. Runway 14R: Damp, , friction coefficient 0.52. UWUU 261630Z 10006MPS 070V130 9999 OVC040 11/06 Q1008 R14R/1///52 NOSIG
VFR 11°C / 6°C 110º variable 070º to 130º 12kt >10km - Overcast 4000ft 1008 No Significant change. Runway 14R: Wet or puddles, , friction coefficient 0.50. UWUU 261600Z 11006MPS 070V130 9999 OVC040 11/06 Q1008 R14R/2///50 NOSIG
VFR 12°C / 6°C 120º 16kt >10km Light Rain 1.00mm precipitation Vertical Visibility of 0ft. 1008 No Significant change. Runway 14R: Wet or puddles, , friction coefficient 0.50. UWUU 261530Z 12008MPS 9999 -RA OVC040 12/06 Q1008 R14R/2///50 NOSIG
VFR 14°C / 4°C 120º variable 090º to 150º 17kt Gust 27kt >10km - Overcast 4000ft 1008 No Significant change. Runway 14R: Clear and dry, , friction coefficient 0.60. UWUU 261500Z 12009G14MPS 090V150 9999 OVC040 14/04 Q1008 R14R/0///60 NOSIG
VFR 14°C / 3°C 110º variable 070º to 130º 10kt >10km - Scattered Clouds 4000ft 1007 No Significant change. Runway 14R: Clear and dry, , friction coefficient 0.60. UWUU 261430Z 11005MPS 070V130 9999 SCT040 14/03 Q1007 R14R/0///60 NOSIG
VFR 14°C / 4°C 90º variable 060º to 120º 8kt >10km - Scattered Clouds 4000ft 1007 No Significant change. Runway 14R: Clear and dry, , friction coefficient 0.60. UWUU 261400Z 09004MPS 060V120 9999 SCT040 14/04 Q1007 R14R/0///60 NOSIG
VFR 15°C / 6°C 30º 4kt >10km - Scattered Clouds 4000ft 1007 No Significant change. Runway 14R: Clear and dry, , friction coefficient 0.60. UWUU 261330Z 03002MPS 9999 SCT040 15/06 Q1007 R14R/0///60 NOSIG

MVFR

7°C / 5°C

[Viac]
Vietor 50º 12kt
Viditeľnosť >10km
Počasie Light Rain 1.00mm precipitation
Oblaky Vertical Visibility of 0ft.
Tlak 1009
Zmeniť No Significant change. Runway 14R: Wet or puddles, 51-100% contamination with 2mm, friction coefficient 0.40.
Nespracované UWUU 270100Z 05006MPS 9999 -RA OVC030 07/05 Q1009 R14R/290240 NOSIG

MVFR

7°C / 5°C

[Viac]
Vietor 50º 10kt
Viditeľnosť >10km
Počasie Light Rain 1.00mm precipitation
Oblaky Vertical Visibility of 0ft.
Tlak 1008
Zmeniť No Significant change. Runway 14R: Wet or puddles, 51-100% contamination with 2mm, friction coefficient 0.40.
Nespracované UWUU 270030Z 05005MPS 9999 -RA OVC030 07/05 Q1008 R14R/290240 NOSIG

MVFR

7°C / 6°C

[Viac]
Vietor 50º 12kt
Viditeľnosť >10km
Počasie Light Rain 1.00mm precipitation
Oblaky Vertical Visibility of 0ft.
Tlak 1009
Zmeniť No Significant change. Runway 14R: Wet or puddles, 51-100% contamination with 2mm, friction coefficient 0.40.
Nespracované UWUU 270000Z 05006MPS 9999 -RA OVC030 07/06 Q1009 R14R/290240 NOSIG

MVFR

7°C / 6°C

[Viac]
Vietor 60º 10kt
Viditeľnosť >10km
Počasie Light Rain 1.00mm precipitation
Oblaky Vertical Visibility of 0ft.
Tlak 1009
Zmeniť No Significant change. Runway 14R: Wet or puddles, 51-100% contamination with 2mm, friction coefficient 0.40.
Nespracované UWUU 262330Z 06005MPS 9999 -RA OVC030 07/06 Q1009 R14R/290240 NOSIG

MVFR

8°C / 7°C

[Viac]
Vietor 50º 10kt
Viditeľnosť >10km
Počasie Light Rain 1.00mm precipitation
Oblaky Vertical Visibility of 0ft.
Tlak 1008
Zmeniť No Significant change. Runway 14R: Wet or puddles, 51-100% contamination with 2mm, friction coefficient 0.40.
Nespracované UWUU 262300Z 05005MPS 9999 -RA OVC030 08/07 Q1008 R14R/290240 NOSIG

MVFR

8°C / 6°C

[Viac]
Vietor 60º 6kt
Viditeľnosť >10km
Počasie Light Rain 1.00mm precipitation
Oblaky Vertical Visibility of 0ft.
Tlak 1009
Zmeniť No Significant change. Runway 14R: Wet or puddles, 51-100% contamination with 2mm, friction coefficient 0.40.
Nespracované UWUU 262230Z 06003MPS 9999 -RA OVC030 08/06 Q1009 R14R/290240 NOSIG

MVFR

8°C / 6°C

[Viac]
Vietor 70º variable 050º to 130º 10kt
Viditeľnosť >10km
Počasie Light Rain 1.00mm precipitation
Oblaky Vertical Visibility of 0ft.
Tlak 1009
Zmeniť No Significant change. Runway 14R: Wet or puddles, 51-100% contamination with 2mm, friction coefficient 0.40.
Nespracované UWUU 262200Z 07005MPS 050V130 9999 -RA OVC030 08/06 Q1009 R14R/290240 NOSIG

IFR

8°C / 7°C

[Viac]
Vietor 80º variable 050º to 130º 10kt
Viditeľnosť 4500m
Počasie Light Rain 1.00mm precipitation
Oblaky Vertical Visibility of 0ft.
Tlak 1009
Zmeniť No Significant change. Runway 14R: Wet or puddles, 51-100% contamination with 2mm, friction coefficient 0.40.
Nespracované UWUU 262130Z 08005MPS 050V130 4500 -RA OVC030 08/07 Q1009 R14R/290240 NOSIG

IFR

8°C / 7°C

[Viac]
Vietor 70º 8kt
Viditeľnosť 4500m
Počasie Light Rain 1.00mm precipitation
Oblaky Vertical Visibility of 0ft.
Tlak 1009
Zmeniť No Significant change. Runway 14R: Wet or puddles, 51-100% contamination with 2mm, friction coefficient 0.40.
Nespracované UWUU 262100Z 07004MPS 4500 -RA OVC030 08/07 Q1009 R14R/290240 NOSIG

IFR

8°C / 7°C

[Viac]
Vietor 80º variable 050º to 120º 10kt
Viditeľnosť 4500m
Počasie Light Rain 1.00mm precipitation
Oblaky Vertical Visibility of 0ft.
Tlak 1009
Zmeniť No Significant change. Runway 14R: Wet or puddles, 51-100% contamination with 2mm, friction coefficient 0.40.
Nespracované UWUU 262030Z 08005MPS 050V120 4500 -RA OVC030 08/07 Q1009 R14R/290240 NOSIG

IFR

9°C / 7°C

[Viac]
Vietor 80º variable 050º to 130º 8kt
Viditeľnosť 4500m
Počasie Light Rain 1.00mm precipitation
Oblaky Vertical Visibility of 0ft.
Tlak 1009
Zmeniť No Significant change. Runway 14R: Wet or puddles, 51-100% contamination with 2mm, friction coefficient 0.44.
Nespracované UWUU 262000Z 08004MPS 050V130 4500 -RA OVC030 09/07 Q1009 R14R/290244 NOSIG

MVFR

9°C / 7°C

[Viac]
Vietor 100º variable 060º to 150º 8kt
Viditeľnosť >10km
Počasie Light Rain 1.00mm precipitation
Oblaky Vertical Visibility of 0ft.
Tlak 1009
Zmeniť No Significant change. Runway 14R: Damp, , friction coefficient 0.52.
Nespracované UWUU 261930Z 10004MPS 060V150 9999 -RA OVC030 09/07 Q1009 R14R/1///52 NOSIG

MVFR

9°C / 7°C

[Viac]
Vietor 90º variable 050º to 140º 8kt
Viditeľnosť >10km
Počasie Light Rain 1.00mm precipitation
Oblaky Vertical Visibility of 0ft.
Tlak 1009
Zmeniť No Significant change. Runway 14R: Damp, , friction coefficient 0.52.
Nespracované UWUU 261900Z 09004MPS 050V140 9999 -RA OVC030 09/07 Q1009 R14R/1///52 NOSIG

MVFR

9°C / 7°C

[Viac]
Vietor 100º variable 070º to 130º 12kt
Viditeľnosť >10km
Počasie Light Rain 1.00mm precipitation
Oblaky Vertical Visibility of 0ft.
Tlak 1009
Zmeniť No Significant change. Runway 14R: Damp, , friction coefficient 0.52.
Nespracované UWUU 261830Z 10006MPS 070V130 9999 -RA OVC030 09/07 Q1009 R14R/1///52 NOSIG

MVFR

9°C / 7°C

[Viac]
Vietor 100º 12kt
Viditeľnosť >10km
Počasie Light Rain 1.00mm precipitation
Oblaky Vertical Visibility of 0ft.
Tlak 1009
Zmeniť No Significant change. Runway 14R: Damp, , friction coefficient 0.52.
Nespracované UWUU 261800Z 10006MPS 9999 -RA OVC030 09/07 Q1009 R14R/1///52 NOSIG

MVFR

10°C / 6°C

[Viac]
Vietor 100º variable 060º to 120º 12kt
Viditeľnosť >10km
Počasie Light Rain 1.00mm precipitation
Oblaky Vertical Visibility of 0ft.
Tlak 1009
Zmeniť No Significant change. Runway 14R: Damp, , friction coefficient 0.52.
Nespracované UWUU 261730Z 10006MPS 060V120 9999 -RA OVC030 10/06 Q1009 R14R/1///52 NOSIG

VFR

11°C / 6°C

[Viac]
Vietor 100º variable 060º to 130º 16kt
Viditeľnosť >10km
Počasie Light Rain 1.00mm precipitation
Oblaky Vertical Visibility of 0ft.
Tlak 1009
Zmeniť No Significant change. Runway 14R: Damp, , friction coefficient 0.52.
Nespracované UWUU 261700Z 10008MPS 060V130 9999 -RA OVC040 11/06 Q1009 R14R/1///52 NOSIG

VFR

11°C / 6°C

[Viac]
Vietor 100º variable 070º to 130º 12kt
Viditeľnosť >10km
Počasie -
Oblaky Overcast 4000ft
Tlak 1008
Zmeniť No Significant change. Runway 14R: Damp, , friction coefficient 0.52.
Nespracované UWUU 261630Z 10006MPS 070V130 9999 OVC040 11/06 Q1008 R14R/1///52 NOSIG

VFR

11°C / 6°C

[Viac]
Vietor 110º variable 070º to 130º 12kt
Viditeľnosť >10km
Počasie -
Oblaky Overcast 4000ft
Tlak 1008
Zmeniť No Significant change. Runway 14R: Wet or puddles, , friction coefficient 0.50.
Nespracované UWUU 261600Z 11006MPS 070V130 9999 OVC040 11/06 Q1008 R14R/2///50 NOSIG

VFR

12°C / 6°C

[Viac]
Vietor 120º 16kt
Viditeľnosť >10km
Počasie Light Rain 1.00mm precipitation
Oblaky Vertical Visibility of 0ft.
Tlak 1008
Zmeniť No Significant change. Runway 14R: Wet or puddles, , friction coefficient 0.50.
Nespracované UWUU 261530Z 12008MPS 9999 -RA OVC040 12/06 Q1008 R14R/2///50 NOSIG

VFR

14°C / 4°C

[Viac]
Vietor 120º variable 090º to 150º 17kt Gust 27kt
Viditeľnosť >10km
Počasie -
Oblaky Overcast 4000ft
Tlak 1008
Zmeniť No Significant change. Runway 14R: Clear and dry, , friction coefficient 0.60.
Nespracované UWUU 261500Z 12009G14MPS 090V150 9999 OVC040 14/04 Q1008 R14R/0///60 NOSIG

VFR

14°C / 3°C

[Viac]
Vietor 110º variable 070º to 130º 10kt
Viditeľnosť >10km
Počasie -
Oblaky Scattered Clouds 4000ft
Tlak 1007
Zmeniť No Significant change. Runway 14R: Clear and dry, , friction coefficient 0.60.
Nespracované UWUU 261430Z 11005MPS 070V130 9999 SCT040 14/03 Q1007 R14R/0///60 NOSIG

VFR

14°C / 4°C

[Viac]
Vietor 90º variable 060º to 120º 8kt
Viditeľnosť >10km
Počasie -
Oblaky Scattered Clouds 4000ft
Tlak 1007
Zmeniť No Significant change. Runway 14R: Clear and dry, , friction coefficient 0.60.
Nespracované UWUU 261400Z 09004MPS 060V120 9999 SCT040 14/04 Q1007 R14R/0///60 NOSIG

VFR

15°C / 6°C

[Viac]
Vietor 30º 4kt
Viditeľnosť >10km
Počasie -
Oblaky Scattered Clouds 4000ft
Tlak 1007
Zmeniť No Significant change. Runway 14R: Clear and dry, , friction coefficient 0.60.
Nespracované UWUU 261330Z 03002MPS 9999 SCT040 15/06 Q1007 R14R/0///60 NOSIG

Správy TAF pre lokalitu Ufa International Airport (UWUU)

From till


Maximum Temperature 10ºC on . Minimum Temperature 4ºC on .
From till Wind 90º 12kt. Gust 23kt. Visibility 10km or more. Broken Clouds 3000ft.
Temporarly from till Wind 50º 17kt. Gust 27kt. Visibility 3100m. Light Showers Rain . Few Clouds 600ft. Broken Clouds 1400ft.

Nespracované: TAF UWUU 262259Z 2700/2724 09006G12MPS 9999 BKN030 TX10/2710Z TN04/2718Z TEMPO 2700/2724 05009G14MPS 3100 -SHRA FEW006 BKN014CB

Aktuálne satelitné snímky a snímky zrážok pre lokalitu Ufa International Airport, Rusko

Značka polohy je umiestnená naUfa International Airport. [Viac]

Satelitné snímky zhotovované v reálnom čase využívajú viditeľné svetlo počas dňa a infračervené žiarenie počas noci. Vzhľadom na to, že infračervené žiarenie zisťuje teplotné rozdiely, snímka v noci nie je tmavá. Nízke oblaky a hmlu je, žiaľ, ťažké odlíšiť od prízemných teplôt, preto môžu byť počas noci takmer neviditeľné. Meteosat satelitné snímky pre Európu sú aktualizované v reálnom čase každých 5 minút. Snímky z GOES-16/GOES-17 (Severná a Južná Amerika) a Himawari (Ázia) sú aktualizované každých 10 minút.

Copyright 2021 EUMETSAT / meteoblue. / Copyright 2021 meteoblue

Radar a krátkodobá predpoveď zrážok pre Ufa International Airport

Mrholenie
Slabý
Mierne
Ťažké
Veľmi ťažké
Krúpy

Značka polohy je umiestnená na Ufa International Airport. Táto animácia ukazuje zrážky pozorované radarom za poslednú hodinu a tiež 1h predpoveď. Mrholenie alebo slabé sneženie môže byť pre radar neviditeľné. Intenzita zrážok je farebne označená od svetlomodrej po oranžovú.